Time;durP1;ratioP1;P1;durP2;ratioP2;P2;SDS_P1;SDS_P2;PMS_P1;PMS_P2;Temp;Humidity;BMP_temperature;BMP_pressure;BME280_temperature;BME280_humidity;BME280_pressure;Samples;Min_cycle;Max_cycle;Signal;HPM_P1;HPM_P2
2021/03/26 00:01:59;;;;;;;11.27;5.40;;;;;;;-142.13;100.00;58370.81;4988314;28;20802;-71
2021/03/26 00:04:26;;;;;;;10.90;4.53;;;;;;;-142.13;100.00;58370.81;4989449;28;20458;-68
2021/03/26 00:06:53;;;;;;;12.10;5.33;;;;;;;-142.13;100.00;58370.81;4994477;28;21064;-71
2021/03/26 00:09:23;;;;;;;13.10;5.67;;;;;;;-142.13;100.00;58370.81;4990435;28;21046;-70
2021/03/26 00:11:54;;;;;;;11.13;5.33;;;;;;;-142.13;100.00;58370.81;4987247;28;21169;-70
2021/03/26 00:14:21;;;;;;;22.17;6.47;;;;;;;-142.13;100.00;58370.81;4988073;28;20510;-69
2021/03/26 00:16:48;;;;;;;13.00;5.60;;;;;;;-142.13;100.00;58370.81;4978063;28;20433;-70
2021/03/26 00:19:16;;;;;;;7.77;4.67;;;;;;;-142.13;100.00;58370.81;4989640;28;20802;-69
2021/03/26 00:21:43;;;;;;;12.47;5.40;;;;;;;-142.13;100.00;58370.81;4988819;28;20787;-70
2021/03/26 00:24:10;;;;;;;15.67;5.50;;;;;;;-142.13;100.00;58370.81;4986560;28;20920;-70
2021/03/26 00:26:37;;;;;;;28.00;8.03;;;;;;;-142.13;100.00;58370.81;4987196;28;20464;-70
2021/03/26 00:29:18;;;;;;;17.70;6.33;;;;;;;-142.13;100.00;58370.81;4986371;28;20445;-70
2021/03/26 00:31:45;;;;;;;15.60;6.03;;;;;;;-142.13;100.00;58370.81;4983207;28;20796;-70
2021/03/26 00:34:12;;;;;;;12.37;6.00;;;;;;;-142.13;100.00;58370.81;4988064;28;20770;-71
2021/03/26 00:36:42;;;;;;;11.47;5.50;;;;;;;-142.13;100.00;58370.81;4989473;28;21007;-71
2021/03/26 00:39:09;;;;;;;9.70;5.63;;;;;;;-142.13;100.00;58370.81;4986787;28;20451;-73
2021/03/26 00:41:37;;;;;;;21.80;7.40;;;;;;;-142.13;100.00;58370.81;4983197;28;20927;-69
2021/03/26 00:44:05;;;;;;;13.03;6.43;;;;;;;-142.13;100.00;58370.81;4987007;28;20507;-69
2021/03/26 00:46:35;;;;;;;17.63;6.63;;;;;;;-142.13;100.00;58370.81;4989047;28;20467;-71
2021/03/26 00:49:02;;;;;;;12.90;6.70;;;;;;;-142.13;100.00;58370.81;4985409;28;20622;-70
2021/03/26 00:51:29;;;;;;;12.13;5.20;;;;;;;-142.13;100.00;58370.81;4984335;28;21097;-70
2021/03/26 00:53:57;;;;;;;15.00;6.20;;;;;;;-142.13;100.00;58370.81;4982667;28;20456;-70
2021/03/26 00:56:24;;;;;;;12.70;6.30;;;;;;;-142.13;100.00;58370.81;4989078;28;20930;-70
2021/03/26 00:58:51;;;;;;;12.27;6.23;;;;;;;-142.13;100.00;58370.81;4978366;28;20470;-69
2021/03/26 01:01:18;;;;;;;13.80;6.50;;;;;;;-142.13;100.00;58370.81;4966101;28;20517;-69
2021/03/26 01:03:46;;;;;;;20.33;7.85;;;;;;;-142.13;100.00;58370.81;4983957;28;20980;-69
2021/03/26 01:06:14;;;;;;;20.23;7.17;;;;;;;-142.13;100.00;58370.81;4974098;28;20735;-69
2021/03/26 01:08:41;;;;;;;26.67;10.00;;;;;;;-142.13;100.00;58370.81;4983172;28;20986;-69
2021/03/26 01:11:12;;;;;;;15.98;6.65;;;;;;;-142.13;100.00;58370.81;4984727;28;20436;-70
2021/03/26 01:13:40;;;;;;;18.88;7.60;;;;;;;-142.13;100.00;58370.81;4984400;28;20548;-71
2021/03/26 01:16:08;;;;;;;11.98;5.70;;;;;;;-142.13;100.00;58370.81;4986424;28;20645;-71
2021/03/26 01:18:40;;;;;;;15.60;6.80;;;;;;;-142.13;100.00;58370.81;4989896;28;20680;-70
2021/03/26 01:21:09;;;;;;;15.20;6.83;;;;;;;-142.13;100.00;58370.81;4989214;28;20439;-69
2021/03/26 01:23:41;;;;;;;14.48;6.30;;;;;;;-142.13;100.00;58370.81;4986568;28;20786;-70
2021/03/26 01:26:10;;;;;;;15.15;7.78;;;;;;;-142.13;100.00;58370.81;4967463;28;20203;-71
2021/03/26 01:28:37;;;;;;;12.65;6.50;;;;;;;-142.13;100.00;58370.81;4982574;28;20233;-70
2021/03/26 01:31:06;;;;;;;11.05;6.00;;;;;;;-142.13;100.00;58370.81;4986447;28;20225;-69
2021/03/26 01:33:34;;;;;;;9.95;5.45;;;;;;;-142.13;100.00;58370.81;4983126;28;20294;-70
2021/03/26 01:36:01;;;;;;;10.63;5.65;;;;;;;-142.13;100.00;58370.81;4983865;28;20552;-69
2021/03/26 01:38:30;;;;;;;16.45;6.22;;;;;;;-142.13;100.00;58370.81;4981183;28;20551;-69
2021/03/26 01:41:00;;;;;;;14.45;7.72;;;;;;;-142.13;100.00;58370.81;4983001;28;20760;-72
2021/03/26 01:43:31;;;;;;;19.67;6.57;;;;;;;-142.13;100.00;58370.81;4984058;28;20704;-70
2021/03/26 01:45:59;;;;;;;15.50;7.35;;;;;;;-142.13;100.00;58370.81;4984193;28;20631;-70
2021/03/26 01:48:29;;;;;;;12.30;5.93;;;;;;;-142.13;100.00;58370.81;4986289;28;20318;-70
2021/03/26 01:50:59;;;;;;;11.65;6.90;;;;;;;-142.13;100.00;58370.81;4977591;28;20470;-70
2021/03/26 01:53:27;;;;;;;10.30;6.13;;;;;;;-142.13;100.00;58370.81;4990045;28;20233;-70
2021/03/26 01:55:59;;;;;;;13.10;6.70;;;;;;;-142.13;100.00;58370.81;4988302;28;20786;-70
2021/03/26 01:58:31;;;;;;;9.68;5.88;;;;;;;-142.13;100.00;58370.81;4985793;28;20221;-70
2021/03/26 02:01:01;;;;;;;12.80;6.93;;;;;;;-142.13;100.00;58370.81;4987604;28;20516;-69
2021/03/26 02:03:31;;;;;;;12.50;5.82;;;;;;;-142.13;100.00;58370.81;4993215;28;20460;-69
2021/03/26 02:06:03;;;;;;;10.23;5.80;;;;;;;-142.13;100.00;58370.81;4986298;28;20538;-70
2021/03/26 02:08:33;;;;;;;10.90;6.60;;;;;;;-142.13;100.00;58370.81;4981828;28;20465;-70
2021/03/26 02:11:06;;;;;;;9.77;5.67;;;;;;;-142.13;100.00;58370.81;4984933;28;20596;-69
2021/03/26 02:13:36;;;;;;;12.33;6.03;;;;;;;-142.13;100.00;58370.81;4982184;28;20816;-69
2021/03/26 02:16:06;;;;;;;14.80;7.50;;;;;;;-142.13;100.00;58370.81;4976363;28;20996;-70
2021/03/26 02:18:36;;;;;;;12.93;6.50;;;;;;;-142.13;100.00;58370.81;4990373;28;21012;-69
2021/03/26 02:21:07;;;;;;;18.30;7.07;;;;;;;-142.13;100.00;58370.81;4964508;28;20880;-69
2021/03/26 02:23:38;;;;;;;16.33;7.23;;;;;;;-142.13;100.00;58370.81;4983556;28;20519;-70
2021/03/26 02:26:13;;;;;;;14.07;6.40;;;;;;;-142.13;100.00;58370.81;4984270;28;20970;-70
2021/03/26 02:28:40;;;;;;;19.13;7.00;;;;;;;-142.13;100.00;58370.81;4982121;28;20464;-70
2021/03/26 02:31:07;;;;;;;14.00;6.20;;;;;;;-142.13;100.00;58370.81;4983874;28;20899;-70
2021/03/26 02:33:34;;;;;;;12.60;7.40;;;;;;;-142.13;100.00;58370.81;4986368;28;20997;-70
2021/03/26 02:36:36;;;;;;;14.60;6.20;;;;;;;-142.13;100.00;58370.81;4982184;28;20832;-69
2021/03/26 02:39:13;;;;;;;12.03;6.37;;;;;;;-142.13;100.00;58370.81;4978292;28;20955;-70
2021/03/26 02:41:45;;;;;;;10.63;5.80;;;;;;;-142.13;100.00;58370.81;4984178;28;20454;-71
2021/03/26 02:44:21;;;;;;;27.10;6.05;;;;;;;-142.13;100.00;58370.81;4984059;28;20685;-72
2021/03/26 02:46:56;;;;;;;12.00;6.40;;;;;;;-142.13;100.00;58370.81;4979147;28;20712;-70
2021/03/26 02:49:34;;;;;;;12.07;6.60;;;;;;;-142.13;100.00;58370.81;4966414;28;20431;-70
2021/03/26 02:52:08;;;;;;;14.93;5.77;;;;;;;-142.13;100.00;58370.81;4986436;28;20787;-70
2021/03/26 02:54:40;;;;;;;13.87;6.37;;;;;;;-142.13;100.00;58370.81;4986109;28;20832;-70
2021/03/26 02:57:09;;;;;;;19.70;7.07;;;;;;;-142.13;100.00;58370.81;4988591;28;20459;-69
2021/03/26 02:59:42;;;;;;;51.20;7.67;;;;;;;-142.13;100.00;58370.81;4989365;28;20443;-70
2021/03/26 03:02:12;;;;;;;15.03;6.23;;;;;;;-142.13;100.00;58370.81;4989695;28;20969;-70
2021/03/26 03:04:45;;;;;;;9.63;5.77;;;;;;;-142.13;100.00;58370.81;4990638;28;20435;-70
2021/03/26 03:07:19;;;;;;;11.52;5.30;;;;;;;-142.13;100.00;58370.81;4988677;28;20822;-70
2021/03/26 03:09:51;;;;;;;10.83;5.83;;;;;;;-142.13;100.00;58370.81;4993065;28;20739;-70
2021/03/26 03:12:21;;;;;;;9.50;5.60;;;;;;;-142.13;100.00;58370.81;4987369;28;20472;-71
2021/03/26 03:14:54;;;;;;;15.93;7.37;;;;;;;-142.13;100.00;58370.81;4991433;28;20456;-69
2021/03/26 03:17:26;;;;;;;12.30;5.20;;;;;;;-142.13;100.00;58370.81;4991894;28;20460;-70
2021/03/26 03:20:00;;;;;;;12.10;6.17;;;;;;;-142.13;100.00;58370.81;4990227;28;20444;-70
2021/03/26 03:22:33;;;;;;;12.17;7.10;;;;;;;-142.13;100.00;58370.81;4987139;28;20451;-70
2021/03/26 03:25:10;;;;;;;13.20;6.30;;;;;;;-142.13;100.00;58370.81;4987201;28;20777;-68
2021/03/26 03:27:46;;;;;;;13.63;5.70;;;;;;;-142.13;100.00;58370.81;4984137;28;20242;-70
2021/03/26 03:30:23;;;;;;;17.70;6.20;;;;;;;-142.13;100.00;58370.81;4990557;28;20436;-70
2021/03/26 03:33:02;;;;;;;14.30;6.90;;;;;;;-142.13;100.00;58370.81;4987229;28;21084;-69
2021/03/26 03:35:36;;;;;;;13.90;6.10;;;;;;;-142.13;100.00;58370.81;4985224;28;20454;-69
2021/03/26 03:38:12;;;;;;;11.17;6.07;;;;;;;-142.13;100.00;58370.81;4985843;28;20826;-69
2021/03/26 03:40:50;;;;;;;12.03;6.10;;;;;;;-142.13;100.00;58370.81;4985878;28;20904;-69
2021/03/26 03:43:23;;;;;;;18.73;5.40;;;;;;;-142.13;100.00;58370.81;4987899;28;20977;-70
2021/03/26 03:45:57;;;;;;;10.20;5.33;;;;;;;-142.13;100.00;58370.81;4985339;28;20921;-70
2021/03/26 03:48:31;;;;;;;9.17;5.30;;;;;;;-142.13;100.00;58370.81;4984209;28;20834;-70
2021/03/26 03:51:03;;;;;;;8.60;4.67;;;;;;;-142.13;100.00;58370.81;4989312;28;20825;-70
2021/03/26 03:53:35;;;;;;;9.20;4.40;;;;;;;-142.13;100.00;58370.81;4987998;28;20472;-70
2021/03/26 03:56:08;;;;;;;10.67;4.70;;;;;;;-142.13;100.00;58370.81;4986880;28;20860;-69
2021/03/26 03:58:48;;;;;;;9.70;4.60;;;;;;;-142.13;100.00;58370.81;4985666;28;20943;-69
2021/03/26 04:01:20;;;;;;;16.93;6.40;;;;;;;-142.13;100.00;58370.81;4988486;28;20919;-69
2021/03/26 04:03:50;;;;;;;18.70;5.90;;;;;;;-142.13;100.00;58370.81;4985602;28;20955;-70
2021/03/26 04:06:21;;;;;;;10.60;6.50;;;;;;;-142.13;100.00;58370.81;4984860;28;20891;-69
2021/03/26 04:08:54;;;;;;;9.20;4.70;;;;;;;-142.13;100.00;58370.81;4969428;28;20817;-71
2021/03/26 04:11:30;;;;;;;15.57;5.33;;;;;;;-142.13;100.00;58370.81;4992254;28;20945;-73
2021/03/26 04:14:02;;;;;;;14.20;6.20;;;;;;;-142.13;100.00;58370.81;4988432;28;20460;-72
2021/03/26 04:16:35;;;;;;;14.60;6.50;;;;;;;-142.13;100.00;58370.81;4990288;28;20503;-71
2021/03/26 04:19:09;;;;;;;12.63;6.23;;;;;;;-142.13;100.00;58370.81;4997952;28;20462;-71
2021/03/26 04:21:40;;;;;;;11.47;6.80;;;;;;;-142.13;100.00;58370.81;4994554;28;20979;-71
2021/03/26 04:24:15;;;;;;;16.87;6.33;;;;;;;-142.13;100.00;58370.81;4986306;28;20981;-71
2021/03/26 04:27:25;;;;;;;15.17;7.10;;;;;;;-142.13;100.00;58370.81;5005156;28;20537;-72
2021/03/26 04:29:56;;;;;;;14.07;5.90;;;;;;;-142.13;100.00;58370.81;4988977;28;20900;-72
2021/03/26 04:32:25;;;;;;;12.73;6.43;;;;;;;-142.13;100.00;58370.81;4983888;28;20944;-71
2021/03/26 04:34:54;;;;;;;18.30;6.50;;;;;;;-142.13;100.00;58370.81;4987254;28;20918;-72
2021/03/26 04:37:29;;;;;;;11.13;5.80;;;;;;;-142.13;100.00;58370.81;4985948;28;21040;-72
2021/03/26 04:40:01;;;;;;;15.97;6.50;;;;;;;-142.13;100.00;58370.81;4988232;28;20762;-71
2021/03/26 04:42:36;;;;;;;7.65;4.90;;;;;;;-142.13;100.00;58370.81;4965009;28;21063;-71
2021/03/26 04:45:10;;;;;;;12.30;6.18;;;;;;;-142.13;100.00;58370.81;4988056;28;20188;-71
2021/03/26 04:47:45;;;;;;;9.93;5.18;;;;;;;-142.13;100.00;58370.81;4987029;28;20580;-71
2021/03/26 04:50:17;;;;;;;10.33;5.13;;;;;;;-142.13;100.00;58370.81;4992830;28;20208;-70
2021/03/26 04:52:48;;;;;;;12.73;4.90;;;;;;;-142.13;100.00;58370.81;4986987;28;20487;-70
2021/03/26 04:55:21;;;;;;;10.00;5.57;;;;;;;-142.13;100.00;58370.81;4988596;28;20455;-70
2021/03/26 04:57:54;;;;;;;12.00;5.95;;;;;;;-142.13;100.00;58370.81;4986922;28;20479;-70
2021/03/26 05:00:25;;;;;;;10.95;5.90;;;;;;;-142.13;100.00;58370.81;4984283;28;20185;-70
2021/03/26 05:02:57;;;;;;;11.77;5.77;;;;;;;-142.13;100.00;58370.81;4983886;28;20221;-70
2021/03/26 05:05:26;;;;;;;14.98;5.97;;;;;;;-142.13;100.00;58370.81;4984770;28;20518;-71
2021/03/26 05:08:00;;;;;;;15.43;5.43;;;;;;;-142.13;100.00;58370.81;4989633;28;20224;-70
2021/03/26 05:10:30;;;;;;;11.10;5.18;;;;;;;-142.13;100.00;58370.81;4986730;28;20436;-70
2021/03/26 05:13:02;;;;;;;13.60;5.60;;;;;;;-142.13;100.00;58370.81;4986952;28;20590;-70
2021/03/26 05:15:39;;;;;;;8.77;5.47;;;;;;;-142.13;100.00;58370.81;4986817;28;20907;-71
2021/03/26 05:18:10;;;;;;;10.93;5.20;;;;;;;-142.13;100.00;58370.81;4987075;28;20239;-71
2021/03/26 05:20:49;;;;;;;9.90;5.00;;;;;;;-142.13;100.00;58370.81;4987333;28;20589;-71
2021/03/26 05:23:20;;;;;;;10.77;4.97;;;;;;;-142.13;100.00;58370.81;4986105;28;20580;-71
2021/03/26 05:25:50;;;;;;;11.90;6.25;;;;;;;-142.13;100.00;58370.81;4984222;28;20292;-71
2021/03/26 05:28:23;;;;;;;13.80;4.57;;;;;;;-142.13;100.00;58370.81;4983338;28;20216;-70
2021/03/26 05:30:51;;;;;;;8.93;5.70;;;;;;;-142.13;100.00;58370.81;4985408;28;20841;-70
2021/03/26 05:33:26;;;;;;;16.05;5.82;;;;;;;-142.13;100.00;58370.81;4985737;28;20229;-70
2021/03/26 05:36:01;;;;;;;14.27;6.65;;;;;;;-142.13;100.00;58370.81;4988410;28;20699;-70
2021/03/26 05:38:34;;;;;;;9.95;5.38;;;;;;;-142.13;100.00;58370.81;4980726;28;20317;-70
2021/03/26 05:41:32;;;;;;;12.20;6.30;;;;;;;-142.13;100.00;58370.81;4986024;28;20212;-71
2021/03/26 05:44:15;;;;;;;13.10;6.68;;;;;;;-142.13;100.00;58370.81;4985263;28;20468;-72
2021/03/26 05:47:03;;;;;;;17.17;6.40;;;;;;;-142.13;100.00;58370.81;4984372;28;20186;-71
2021/03/26 05:49:46;;;;;;;15.55;7.03;;;;;;;-142.13;100.00;58370.81;4983882;28;20202;-70
2021/03/26 05:52:45;;;;;;;11.43;6.55;;;;;;;-142.13;100.00;58370.81;4982842;28;20684;-71
2021/03/26 05:55:31;;;;;;;13.32;7.00;;;;;;;-142.13;100.00;58370.81;4980575;28;20280;-71
2021/03/26 05:58:12;;;;;;;21.88;10.23;;;;;;;-142.13;100.00;58370.81;4984536;28;20668;-72
2021/03/26 06:01:33;;;;;;;18.73;10.48;;;;;;;-142.13;100.00;58370.81;4983771;28;20193;-70
2021/03/26 06:04:42;;;;;;;12.70;7.78;;;;;;;-142.13;100.00;58370.81;4886149;29;20259;-70
2021/03/26 06:07:44;;;;;;;16.67;8.20;;;;;;;-142.13;100.00;58370.81;4889029;29;20232;-73
2021/03/26 06:10:37;;;;;;;14.18;7.30;;;;;;;-142.13;100.00;58370.81;4872246;29;20631;-72
2021/03/26 06:13:29;;;;;;;14.27;8.25;;;;;;;-142.13;100.00;58370.81;4885694;29;20732;-71
2021/03/26 06:16:27;;;;;;;24.27;8.70;;;;;;;-142.13;100.00;58370.81;4885654;29;20257;-72
2021/03/26 06:19:11;;;;;;;37.63;18.02;;;;;;;-142.13;100.00;58370.81;4890001;29;20602;-70
2021/03/26 06:21:52;;;;;;;31.67;13.65;;;;;;;-142.13;100.00;58370.81;4887759;29;20647;-70
2021/03/26 06:24:38;;;;;;;24.20;8.30;;;;;;;-142.13;100.00;58370.81;4890731;29;20715;-70
2021/03/26 06:27:17;;;;;;;18.70;7.80;;;;;;;-142.13;100.00;58370.81;4886961;29;20243;-71
2021/03/26 06:29:57;;;;;;;14.60;7.90;;;;;;;-142.13;100.00;58370.81;4892268;29;20610;-70
2021/03/26 06:33:05;;;;;;;22.45;8.13;;;;;;;-142.13;100.00;58370.81;4891771;29;20220;-70
2021/03/26 06:35:55;;;;;;;18.08;7.60;;;;;;;-142.13;100.00;58370.81;4888843;29;20204;-71
2021/03/26 06:38:50;;;;;;;16.50;8.02;;;;;;;-142.13;100.00;58370.81;4862684;29;20225;-72
2021/03/26 06:41:30;;;;;;;12.18;7.32;;;;;;;-142.13;100.00;58370.81;4990379;28;20718;-71
2021/03/26 06:44:27;;;;;;;15.50;8.27;;;;;;;-142.13;100.00;58370.81;4972110;28;20543;-71
2021/03/26 06:46:58;;;;;;;14.83;7.50;;;;;;;-142.13;100.00;58370.81;4986339;28;20671;-70
2021/03/26 06:49:37;;;;;;;15.77;7.77;;;;;;;-142.13;100.00;58370.81;4985460;28;20527;-70
2021/03/26 06:52:16;;;;;;;11.10;7.13;;;;;;;-142.13;100.00;58370.81;4986072;28;20788;-71
2021/03/26 06:55:06;;;;;;;13.87;8.30;;;;;;;-142.13;100.00;58370.81;4991202;28;20803;-70
2021/03/26 06:57:57;;;;;;;12.20;7.90;;;;;;;-142.13;100.00;58370.81;4986772;28;20464;-70
2021/03/26 07:00:41;;;;;;;17.03;9.17;;;;;;;-142.13;100.00;58370.81;4993964;28;20745;-70
2021/03/26 07:03:23;;;;;;;15.13;8.97;;;;;;;-142.13;100.00;58370.81;4992636;28;20550;-71
2021/03/26 07:06:35;;;;;;;14.30;8.27;;;;;;;-142.13;100.00;58370.81;4988378;28;20494;-71
2021/03/26 07:09:23;;;;;;;19.90;8.80;;;;;;;-142.13;100.00;58370.81;4986872;28;20502;-69
2021/03/26 07:12:11;;;;;;;18.23;8.90;;;;;;;-142.13;100.00;58370.81;4986482;28;20497;-71
2021/03/26 07:14:56;;;;;;;17.00;8.83;;;;;;;-142.13;100.00;58370.81;4992999;28;20440;-71
2021/03/26 07:17:47;;;;;;;21.20;9.37;;;;;;;-142.13;100.00;58370.81;4972098;28;20485;-70
2021/03/26 07:20:43;;;;;;;12.27;7.40;;;;;;;-142.13;100.00;58370.81;4986708;28;20838;-70
2021/03/26 07:23:37;;;;;;;19.00;8.40;;;;;;;-142.13;100.00;58370.81;4988883;28;21016;-70
2021/03/26 07:26:26;;;;;;;18.43;8.10;;;;;;;-142.13;100.00;58370.81;4985902;28;20951;-71
2021/03/26 07:29:29;;;;;;;25.70;9.63;;;;;;;-142.13;100.00;58370.81;4982322;28;20500;-71
2021/03/26 07:32:22;;;;;;;19.70;10.40;;;;;;;-142.13;100.00;58370.81;4970789;28;20443;-70
2021/03/26 07:35:23;;;;;;;21.40;8.70;;;;;;;-142.13;100.00;58370.81;4991566;28;20468;-71
2021/03/26 07:38:09;;;;;;;26.23;9.23;;;;;;;-142.13;100.00;58370.81;4967185;28;20774;-70
2021/03/26 07:40:44;;;;;;;21.80;7.87;;;;;;;-142.13;100.00;58370.81;4986314;28;20464;-71
2021/03/26 07:43:33;;;;;;;12.60;7.40;;;;;;;-142.13;100.00;58370.81;4985927;28;20715;-71
2021/03/26 07:46:17;;;;;;;12.60;8.03;;;;;;;-142.13;100.00;58370.81;4976295;28;20752;-70
2021/03/26 07:49:02;;;;;;;22.13;8.40;;;;;;;-142.13;100.00;58370.81;4982955;28;20803;-71
2021/03/26 07:51:32;;;;;;;12.80;7.03;;;;;;;-142.13;100.00;58370.81;4986869;28;21106;-72
2021/03/26 07:54:19;;;;;;;14.03;7.50;;;;;;;-142.13;100.00;58370.81;4985434;28;21005;-71
2021/03/26 07:57:25;;;;;;;12.03;6.33;;;;;;;-142.13;100.00;58370.81;4972189;28;20447;-72
2021/03/26 08:00:14;;;;;;;12.40;7.27;;;;;;;-142.13;100.00;58370.81;4987768;28;20915;-72
2021/03/26 08:02:57;;;;;;;15.50;7.13;;;;;;;-142.13;100.00;58370.81;4987086;28;21004;-71
2021/03/26 08:05:29;;;;;;;16.23;6.67;;;;;;;-142.13;100.00;58370.81;4988382;28;20993;-71
2021/03/26 08:08:13;;;;;;;16.03;6.13;;;;;;;-142.13;100.00;58370.81;4969638;28;20468;-71
2021/03/26 08:10:48;;;;;;;12.70;6.90;;;;;;;-142.13;100.00;58370.81;4986525;28;20951;-72
2021/03/26 08:13:37;;;;;;;14.50;6.67;;;;;;;-142.13;100.00;58370.81;4988248;28;20958;-71
2021/03/26 08:16:33;;;;;;;10.43;6.23;;;;;;;-142.13;100.00;58370.81;4984281;28;20448;-71
2021/03/26 08:19:15;;;;;;;11.60;5.93;;;;;;;-142.13;100.00;58370.81;4987111;28;21029;-71
2021/03/26 08:21:53;;;;;;;12.07;6.20;;;;;;;-142.13;100.00;58370.81;4985414;28;20440;-71
2021/03/26 08:24:55;;;;;;;11.73;6.80;;;;;;;-142.13;100.00;58370.81;4991368;28;20988;-71
2021/03/26 08:27:36;;;;;;;14.87;7.00;;;;;;;-142.13;100.00;58370.81;4989173;28;20464;-72
2021/03/26 08:30:25;;;;;;;31.67;16.93;;;;;;;-142.13;100.00;58370.81;4985162;28;20939;-72
2021/03/26 08:33:06;;;;;;;11.10;7.53;;;;;;;-142.13;100.00;58370.81;4986782;28;20470;-72
2021/03/26 08:35:59;;;;;;;12.00;6.60;;;;;;;-142.13;100.00;58370.81;4986517;28;20483;-71
2021/03/26 08:38:41;;;;;;;13.80;6.30;;;;;;;-142.13;100.00;58370.81;4988700;28;20470;-72
2021/03/26 08:41:15;;;;;;;14.50;6.20;;;;;;;-142.13;100.00;58370.81;4986566;28;20934;-71
2021/03/26 08:43:50;;;;;;;17.00;7.07;;;;;;;-142.13;100.00;58370.81;4988186;28;20466;-70
2021/03/26 08:46:21;;;;;;;17.00;6.83;;;;;;;-142.13;100.00;58370.81;4986011;28;20452;-71
2021/03/26 08:48:58;;;;;;;17.30;7.90;;;;;;;-142.13;100.00;58370.81;4984883;28;20559;-71
2021/03/26 08:51:55;;;;;;;12.60;6.70;;;;;;;-142.13;100.00;58370.81;4989189;28;20447;-72
2021/03/26 08:54:48;;;;;;;17.13;7.30;;;;;;;-142.13;100.00;58370.81;4966990;28;20559;-72
2021/03/26 08:57:22;;;;;;;13.17;6.07;;;;;;;-142.13;100.00;58370.81;4959499;28;20790;-72
2021/03/26 09:00:07;;;;;;;23.53;7.97;;;;;;;-142.13;100.00;58370.81;4987939;28;20837;-71
2021/03/26 09:03:04;;;;;;;16.80;6.80;;;;;;;-142.13;100.00;58370.81;4984837;28;20928;-71
2021/03/26 09:06:11;;;;;;;34.20;16.73;;;;;;;-142.13;100.00;58370.81;4983904;28;20808;-73
2021/03/26 09:08:54;;;;;;;15.30;8.00;;;;;;;-142.13;100.00;58370.81;4983543;28;20550;-71
2021/03/26 09:11:37;;;;;;;15.70;7.27;;;;;;;-142.13;100.00;58370.81;4983840;28;20440;-72
2021/03/26 09:14:32;;;;;;;14.30;7.30;;;;;;;-142.13;100.00;58370.81;4984449;28;20468;-70
2021/03/26 09:17:02;;;;;;;16.27;9.40;;;;;;;-142.13;100.00;58370.81;4988670;28;20772;-71
2021/03/26 09:19:35;;;;;;;18.00;7.97;;;;;;;-142.13;100.00;58370.81;4986174;28;20448;-71
2021/03/26 09:22:10;;;;;;;21.63;8.00;;;;;;;-142.13;100.00;58370.81;4984989;28;20498;-70
2021/03/26 09:24:52;;;;;;;15.57;8.73;;;;;;;-142.13;100.00;58370.81;4986120;28;20771;-69
2021/03/26 09:27:34;;;;;;;19.40;7.93;;;;;;;-142.13;100.00;58370.81;4986505;28;20763;-71
2021/03/26 09:30:15;;;;;;;16.83;7.53;;;;;;;-142.13;100.00;58370.81;4982843;28;20467;-71
2021/03/26 09:32:48;;;;;;;17.50;8.63;;;;;;;-142.13;100.00;58370.81;4973208;28;20460;-71
2021/03/26 09:35:22;;;;;;;17.47;7.50;;;;;;;-142.13;100.00;58370.81;4970137;28;20901;-71
2021/03/26 09:37:54;;;;;;;17.03;8.23;;;;;;;-142.13;100.00;58370.81;4986116;28;20954;-71
2021/03/26 09:40:34;;;;;;;18.40;8.00;;;;;;;-142.13;100.00;58370.81;4984509;28;20966;-70
2021/03/26 09:43:14;;;;;;;22.27;9.53;;;;;;;-142.13;100.00;58370.81;4983516;28;20470;-71
2021/03/26 09:45:47;;;;;;;18.90;8.70;;;;;;;-142.13;100.00;58370.81;4986170;28;20746;-71
2021/03/26 09:48:44;;;;;;;13.27;8.00;;;;;;;-142.13;100.00;58370.81;4982260;28;20494;-71
2021/03/26 09:51:23;;;;;;;17.33;8.20;;;;;;;-142.13;100.00;58370.81;4986490;28;20467;-71
2021/03/26 09:53:51;;;;;;;17.50;8.70;;;;;;;-142.13;100.00;58370.81;4985898;28;20961;-71
2021/03/26 09:56:30;;;;;;;19.97;8.97;;;;;;;-142.13;100.00;58370.81;4982619;28;20489;-70
2021/03/26 09:59:02;;;;;;;34.93;14.70;;;;;;;-142.13;100.00;58370.81;4990134;28;20559;-71
2021/03/26 10:01:37;;;;;;;14.17;8.60;;;;;;;-142.13;100.00;58370.81;4989009;28;20462;-71
2021/03/26 10:04:09;;;;;;;27.33;9.17;;;;;;;-142.13;100.00;58370.81;4987076;28;20801;-72
2021/03/26 10:06:57;;;;;;;19.67;9.03;;;;;;;-142.13;100.00;58370.81;4990420;28;20496;-72
2021/03/26 10:09:31;;;;;;;16.47;7.60;;;;;;;-142.13;100.00;58370.81;4989580;28;20479;-72
2021/03/26 10:12:14;;;;;;;17.63;9.00;;;;;;;-142.13;100.00;58370.81;4992080;28;20449;-72
2021/03/26 10:15:00;;;;;;;15.83;8.00;;;;;;;-142.13;100.00;58370.81;4990820;28;20458;-74
2021/03/26 10:17:47;;;;;;;25.97;8.00;;;;;;;-142.13;100.00;58370.81;4988405;28;20474;-73
2021/03/26 10:20:38;;;;;;;13.10;7.20;;;;;;;-142.13;100.00;58370.81;4992513;28;20995;-72
2021/03/26 10:23:26;;;;;;;23.53;7.90;;;;;;;-142.13;100.00;58370.81;4982162;28;20816;-72
2021/03/26 10:26:03;;;;;;;17.17;8.20;;;;;;;-142.13;100.00;58370.81;4988177;28;20440;-73
2021/03/26 10:29:03;;;;;;;14.33;8.47;;;;;;;-142.13;100.00;58370.81;4986863;28;20943;-72
2021/03/26 10:31:33;;;;;;;22.90;7.43;;;;;;;-142.13;100.00;58370.81;4984665;28;20999;-72
2021/03/26 10:34:06;;;;;;;16.60;7.30;;;;;;;-142.13;100.00;58370.81;4989167;28;20797;-72
2021/03/26 10:36:43;;;;;;;16.70;8.00;;;;;;;-142.13;100.00;58370.81;4990216;28;20439;-72
2021/03/26 10:39:14;;;;;;;18.03;7.90;;;;;;;-142.13;100.00;58370.81;4987880;28;20531;-73
2021/03/26 10:42:00;;;;;;;16.10;7.20;;;;;;;-142.13;100.00;58370.81;4990971;28;20873;-72
2021/03/26 10:44:35;;;;;;;18.70;7.43;;;;;;;-142.13;100.00;58370.81;4988541;28;20459;-73
2021/03/26 10:47:14;;;;;;;13.60;7.30;;;;;;;-142.13;100.00;58370.81;4991688;28;20476;-73
2021/03/26 10:49:46;;;;;;;14.97;7.37;;;;;;;-142.13;100.00;58370.81;4990227;28;20465;-71
2021/03/26 10:52:17;;;;;;;14.70;6.70;;;;;;;-142.13;100.00;58370.81;4991833;28;20463;-73
2021/03/26 10:54:49;;;;;;;12.63;6.73;;;;;;;-142.13;100.00;58370.81;4974423;28;20951;-73
2021/03/26 10:57:37;;;;;;;23.77;8.27;;;;;;;-142.13;100.00;58370.81;4985939;28;20775;-72
2021/03/26 11:00:17;;;;;;;11.57;7.33;;;;;;;-142.13;100.00;58370.81;4985639;28;20867;-72
2021/03/26 11:02:59;;;;;;;17.33;7.33;;;;;;;-142.13;100.00;58370.81;4988639;28;20554;-72
2021/03/26 11:05:43;;;;;;;13.70;7.40;;;;;;;-142.13;100.00;58370.81;4993120;28;20450;-72
2021/03/26 11:08:28;;;;;;;14.00;7.57;;;;;;;-142.13;100.00;58370.81;4971441;28;20797;-72
2021/03/26 11:11:02;;;;;;;13.67;7.67;;;;;;;-142.13;100.00;58370.81;4990218;28;20439;-73
2021/03/26 11:13:38;;;;;;;11.13;6.57;;;;;;;-142.13;100.00;58370.81;4987848;28;20519;-72
2021/03/26 11:16:13;;;;;;;14.70;6.77;;;;;;;-142.13;100.00;58370.81;4988106;28;20729;-73
2021/03/26 11:18:53;;;;;;;13.33;6.97;;;;;;;-142.13;100.00;58370.81;4993101;28;20479;-71
2021/03/26 11:21:24;;;;;;;17.37;7.00;;;;;;;-142.13;100.00;58370.81;4992271;28;20766;-71
2021/03/26 11:23:58;;;;;;;13.07;6.70;;;;;;;-142.13;100.00;58370.81;4991195;28;20776;-73
2021/03/26 11:26:32;;;;;;;12.90;7.60;;;;;;;-142.13;100.00;58370.81;4977796;28;21134;-70
2021/03/26 11:29:12;;;;;;;28.10;7.90;;;;;;;-142.13;100.00;58370.81;4975116;28;20468;-73
2021/03/26 11:31:50;;;;;;;13.30;6.70;;;;;;;-142.13;100.00;58370.81;4988455;28;20845;-72
2021/03/26 11:34:31;;;;;;;18.73;11.00;;;;;;;-142.13;100.00;58370.81;4992207;28;20563;-73
2021/03/26 11:37:13;;;;;;;26.90;16.07;;;;;;;-142.13;100.00;58370.81;4993009;28;20992;-71
2021/03/26 11:39:44;;;;;;;11.70;7.00;;;;;;;-142.13;100.00;58370.81;4987767;28;20444;-72
2021/03/26 11:42:45;;;;;;;15.53;7.07;;;;;;;-142.13;100.00;58370.81;4985005;28;20460;-71
2021/03/26 11:45:25;;;;;;;14.50;6.67;;;;;;;-142.13;100.00;58370.81;4989621;28;20479;-74
2021/03/26 11:48:14;;;;;;;11.07;6.73;;;;;;;-142.13;100.00;58370.81;4985846;28;20966;-72
2021/03/26 11:50:56;;;;;;;13.20;7.00;;;;;;;-142.13;100.00;58370.81;4985171;28;20919;-72